sensor_id;sensor_type;location;lat;lon;timestamp;temperature;humidity
28253;DHT22;15515;45.588;5.276;2022-08-19T08:05:28;20.70;99.90
28253;DHT22;15515;45.588;5.276;2022-08-19T08:08:14;20.70;99.90
28253;DHT22;15515;45.588;5.276;2022-08-19T08:10:50;20.70;99.90
28253;DHT22;15515;45.588;5.276;2022-08-19T08:13:17;20.80;99.90
28253;DHT22;15515;45.588;5.276;2022-08-19T08:15:44;20.80;99.90
28253;DHT22;15515;45.588;5.276;2022-08-19T08:18:11;20.80;99.90
28253;DHT22;15515;45.588;5.276;2022-08-19T08:20:39;20.70;99.90
28253;DHT22;15515;45.588;5.276;2022-08-19T08:23:06;20.80;99.90
28253;DHT22;15515;45.588;5.276;2022-08-19T08:25:56;20.80;99.90
28253;DHT22;15515;45.588;5.276;2022-08-19T08:28:25;20.90;99.90
28253;DHT22;15515;45.588;5.276;2022-08-19T08:30:54;20.90;99.90
28253;DHT22;15515;45.588;5.276;2022-08-19T08:33:23;21.00;99.90
28253;DHT22;15515;45.588;5.276;2022-08-19T08:35:51;21.10;99.90
28253;DHT22;15515;45.588;5.276;2022-08-19T08:38:19;21.20;99.90
28253;DHT22;15515;45.588;5.276;2022-08-19T08:40:57;21.10;99.90
28253;DHT22;15515;45.588;5.276;2022-08-19T08:43:35;21.20;99.90
28253;DHT22;15515;45.588;5.276;2022-08-19T08:49:23;21.30;99.90
28253;DHT22;15515;45.588;5.276;2022-08-19T08:52:05;21.40;99.90
28253;DHT22;15515;45.588;5.276;2022-08-19T08:54:36;21.40;99.90
28253;DHT22;15515;45.588;5.276;2022-08-19T08:57:09;21.40;99.90
28253;DHT22;15515;45.588;5.276;2022-08-19T08:59:40;21.50;99.90
28253;DHT22;15515;45.588;5.276;2022-08-19T09:02:09;21.50;99.90
28253;DHT22;15515;45.588;5.276;2022-08-19T09:04:37;21.60;99.90
28253;DHT22;15515;45.588;5.276;2022-08-19T09:16:02;21.40;99.90
28253;DHT22;15515;45.588;5.276;2022-08-19T09:21:08;21.40;99.90
28253;DHT22;15515;45.588;5.276;2022-08-19T09:23:36;21.40;99.90
28253;DHT22;15515;45.588;5.276;2022-08-19T09:26:09;21.40;99.90
28253;DHT22;15515;45.588;5.276;2022-08-19T09:28:36;21.40;99.90
28253;DHT22;15515;45.588;5.276;2022-08-19T09:31:07;21.40;99.90
28253;DHT22;15515;45.588;5.276;2022-08-19T09:33:34;21.50;99.90
28253;DHT22;15515;45.588;5.276;2022-08-19T09:36:06;21.60;99.90
28253;DHT22;15515;45.588;5.276;2022-08-19T09:38:35;21.60;99.90
28253;DHT22;15515;45.588;5.276;2022-08-19T09:41:12;21.70;99.90
28253;DHT22;15515;45.588;5.276;2022-08-19T09:43:41;21.80;99.90
28253;DHT22;15515;45.588;5.276;2022-08-19T09:46:11;21.80;99.90
28253;DHT22;15515;45.588;5.276;2022-08-19T09:48:41;21.90;99.90
28253;DHT22;15515;45.588;5.276;2022-08-19T09:51:12;21.90;99.90
28253;DHT22;15515;45.588;5.276;2022-08-19T09:53:44;22.00;99.90
28253;DHT22;15515;45.588;5.276;2022-08-19T09:56:13;22.20;99.90
28253;DHT22;15515;45.588;5.276;2022-08-19T09:58:40;22.40;99.90
28253;DHT22;15515;45.588;5.276;2022-08-19T10:01:08;22.40;99.90
28253;DHT22;15515;45.588;5.276;2022-08-19T10:03:36;22.50;99.90
28253;DHT22;15515;45.588;5.276;2022-08-19T10:06:04;22.40;99.90
28253;DHT22;15515;45.588;5.276;2022-08-19T10:08:34;22.30;99.90
28253;DHT22;15515;45.588;5.276;2022-08-19T10:11:02;22.30;99.90
28253;DHT22;15515;45.588;5.276;2022-08-19T10:13:32;22.50;99.90
28253;DHT22;15515;45.588;5.276;2022-08-19T10:16:11;22.80;99.90
28253;DHT22;15515;45.588;5.276;2022-08-19T10:18:39;22.70;99.90
28253;DHT22;15515;45.588;5.276;2022-08-19T10:21:18;22.40;99.90
28253;DHT22;15515;45.588;5.276;2022-08-19T10:23:48;22.30;99.90
28253;DHT22;15515;45.588;5.276;2022-08-19T10:26:21;22.20;99.90
28253;DHT22;15515;45.588;5.276;2022-08-19T10:28:49;22.20;99.90
28253;DHT22;15515;45.588;5.276;2022-08-19T10:31:25;22.10;99.90
28253;DHT22;15515;45.588;5.276;2022-08-19T10:33:52;22.00;99.90
28253;DHT22;15515;45.588;5.276;2022-08-19T10:36:30;21.80;99.90
28253;DHT22;15515;45.588;5.276;2022-08-19T10:39:00;21.80;99.90
28253;DHT22;15515;45.588;5.276;2022-08-19T10:41:34;21.70;99.90
28253;DHT22;15515;45.588;5.276;2022-08-19T10:44:06;21.70;99.90
28253;DHT22;15515;45.588;5.276;2022-08-19T10:46:37;21.70;99.90
28253;DHT22;15515;45.588;5.276;2022-08-19T10:49:05;21.60;99.90
28253;DHT22;15515;45.588;5.276;2022-08-19T10:51:32;21.60;99.90
28253;DHT22;15515;45.588;5.276;2022-08-19T10:54:19;21.60;99.90
28253;DHT22;15515;45.588;5.276;2022-08-19T10:56:46;21.60;99.90
28253;DHT22;15515;45.588;5.276;2022-08-19T10:59:27;21.50;99.90
28253;DHT22;15515;45.588;5.276;2022-08-19T11:02:01;21.50;99.90
28253;DHT22;15515;45.588;5.276;2022-08-19T11:04:29;21.50;99.90
28253;DHT22;15515;45.588;5.276;2022-08-19T11:06:56;21.50;99.90
28253;DHT22;15515;45.588;5.276;2022-08-19T11:09:24;21.50;99.90
28253;DHT22;15515;45.588;5.276;2022-08-19T11:11:58;21.40;99.90
28253;DHT22;15515;45.588;5.276;2022-08-19T11:14:26;21.50;99.90
28253;DHT22;15515;45.588;5.276;2022-08-19T11:16:53;21.50;99.90
28253;DHT22;15515;45.588;5.276;2022-08-19T11:19:22;21.50;99.90
28253;DHT22;15515;45.588;5.276;2022-08-19T11:21:51;21.50;99.90
28253;DHT22;15515;45.588;5.276;2022-08-19T11:24:23;21.50;99.90
28253;DHT22;15515;45.588;5.276;2022-08-19T11:26:51;21.50;99.90
28253;DHT22;15515;45.588;5.276;2022-08-19T11:29:21;21.50;99.90
28253;DHT22;15515;45.588;5.276;2022-08-19T11:31:49;21.50;99.90
28253;DHT22;15515;45.588;5.276;2022-08-19T11:34:20;21.50;99.90
28253;DHT22;15515;45.588;5.276;2022-08-19T11:36:48;21.60;99.90
28253;DHT22;15515;45.588;5.276;2022-08-19T11:39:19;21.60;99.90
28253;DHT22;15515;45.588;5.276;2022-08-19T11:41:47;21.60;99.90
28253;DHT22;15515;45.588;5.276;2022-08-19T11:44:14;21.60;99.90
28253;DHT22;15515;45.588;5.276;2022-08-19T11:46:42;21.70;99.90
28253;DHT22;15515;45.588;5.276;2022-08-19T11:49:15;21.70;99.90
28253;DHT22;15515;45.588;5.276;2022-08-19T11:51:42;21.70;99.90
28253;DHT22;15515;45.588;5.276;2022-08-19T11:54:11;21.70;99.90
28253;DHT22;15515;45.588;5.276;2022-08-19T11:56:40;21.80;99.90
28253;DHT22;15515;45.588;5.276;2022-08-19T11:59:08;21.80;99.90
28253;DHT22;15515;45.588;5.276;2022-08-19T12:01:38;21.80;99.90
28253;DHT22;15515;45.588;5.276;2022-08-19T12:04:07;21.80;99.90
28253;DHT22;15515;45.588;5.276;2022-08-19T12:06:37;21.80;99.90
28253;DHT22;15515;45.588;5.276;2022-08-19T12:09:07;21.80;99.90
28253;DHT22;15515;45.588;5.276;2022-08-19T12:11:37;21.70;99.90
28253;DHT22;15515;45.588;5.276;2022-08-19T12:14:05;21.70;99.90
28253;DHT22;15515;45.588;5.276;2022-08-19T12:16:32;21.60;99.90
28253;DHT22;15515;45.588;5.276;2022-08-19T12:19:00;21.60;99.90
28253;DHT22;15515;45.588;5.276;2022-08-19T12:21:33;21.60;99.90
28253;DHT22;15515;45.588;5.276;2022-08-19T12:24:02;21.60;99.90
28253;DHT22;15515;45.588;5.276;2022-08-19T12:26:30;21.70;99.90
28253;DHT22;15515;45.588;5.276;2022-08-19T12:28:59;21.70;99.90
28253;DHT22;15515;45.588;5.276;2022-08-19T12:31:27;21.80;99.90
28253;DHT22;15515;45.588;5.276;2022-08-19T12:33:55;21.90;99.90
28253;DHT22;15515;45.588;5.276;2022-08-19T12:36:22;21.90;99.90
28253;DHT22;15515;45.588;5.276;2022-08-19T12:38:50;21.90;99.90
28253;DHT22;15515;45.588;5.276;2022-08-19T12:41:18;22.00;99.90
28253;DHT22;15515;45.588;5.276;2022-08-19T12:43:46;22.00;99.90
28253;DHT22;15515;45.588;5.276;2022-08-19T12:46:14;22.00;99.90
28253;DHT22;15515;45.588;5.276;2022-08-19T12:48:41;22.00;99.90
28253;DHT22;15515;45.588;5.276;2022-08-19T12:51:13;22.10;99.90
28253;DHT22;15515;45.588;5.276;2022-08-19T12:53:41;22.20;99.90
28253;DHT22;15515;45.588;5.276;2022-08-19T12:56:10;22.30;99.90
28253;DHT22;15515;45.588;5.276;2022-08-19T12:58:39;22.40;99.90
28253;DHT22;15515;45.588;5.276;2022-08-19T13:01:10;22.50;99.90
28253;DHT22;15515;45.588;5.276;2022-08-19T13:03:39;22.60;99.90
28253;DHT22;15515;45.588;5.276;2022-08-19T13:06:07;22.70;99.90
28253;DHT22;15515;45.588;5.276;2022-08-19T13:08:35;22.70;99.90
28253;DHT22;15515;45.588;5.276;2022-08-19T13:11:16;22.70;99.90
28253;DHT22;15515;45.588;5.276;2022-08-19T13:13:47;22.70;99.90
28253;DHT22;15515;45.588;5.276;2022-08-19T13:16:15;22.60;99.90
28253;DHT22;15515;45.588;5.276;2022-08-19T13:18:45;22.50;99.90
28253;DHT22;15515;45.588;5.276;2022-08-19T13:21:14;22.50;99.90
28253;DHT22;15515;45.588;5.276;2022-08-19T13:23:41;22.40;99.90
28253;DHT22;15515;45.588;5.276;2022-08-19T13:26:10;22.30;99.90
28253;DHT22;15515;45.588;5.276;2022-08-19T13:28:39;22.40;99.90
28253;DHT22;15515;45.588;5.276;2022-08-19T13:31:27;22.40;99.90
28253;DHT22;15515;45.588;5.276;2022-08-19T13:34:14;22.40;99.90
28253;DHT22;15515;45.588;5.276;2022-08-19T13:36:42;22.50;99.90
28253;DHT22;15515;45.588;5.276;2022-08-19T13:39:11;22.50;99.90
28253;DHT22;15515;45.588;5.276;2022-08-19T13:41:44;22.50;99.90
28253;DHT22;15515;45.588;5.276;2022-08-19T13:44:18;22.40;99.90
28253;DHT22;15515;45.588;5.276;2022-08-19T13:46:47;22.40;99.90
28253;DHT22;15515;45.588;5.276;2022-08-19T13:49:15;22.40;99.90
28253;DHT22;15515;45.588;5.276;2022-08-19T13:51:43;22.40;99.90
28253;DHT22;15515;45.588;5.276;2022-08-19T13:54:11;22.40;99.90
28253;DHT22;15515;45.588;5.276;2022-08-19T13:56:43;22.40;99.90
28253;DHT22;15515;45.588;5.276;2022-08-19T13:59:11;22.50;99.90
28253;DHT22;15515;45.588;5.276;2022-08-19T14:01:39;22.90;99.90
28253;DHT22;15515;45.588;5.276;2022-08-19T14:04:07;23.60;99.90
28253;DHT22;15515;45.588;5.276;2022-08-19T14:06:34;24.10;99.90
28253;DHT22;15515;45.588;5.276;2022-08-19T14:09:01;24.60;99.90
28253;DHT22;15515;45.588;5.276;2022-08-19T14:11:29;25.50;99.90
28253;DHT22;15515;45.588;5.276;2022-08-19T14:13:56;26.30;99.50
28253;DHT22;15515;45.588;5.276;2022-08-19T14:16:23;26.80;96.70
28253;DHT22;15515;45.588;5.276;2022-08-19T14:18:51;27.20;94.30
28253;DHT22;15515;45.588;5.276;2022-08-19T14:21:22;27.50;92.00
28253;DHT22;15515;45.588;5.276;2022-08-19T14:23:51;27.80;91.10
28253;DHT22;15515;45.588;5.276;2022-08-19T14:26:20;28.00;89.90
28253;DHT22;15515;45.588;5.276;2022-08-19T14:28:47;28.20;88.30
28253;DHT22;15515;45.588;5.276;2022-08-19T14:31:16;28.40;86.90
28253;DHT22;15515;45.588;5.276;2022-08-19T14:33:46;28.50;85.50
28253;DHT22;15515;45.588;5.276;2022-08-19T14:36:14;28.70;84.90
28253;DHT22;15515;45.588;5.276;2022-08-19T14:38:41;28.70;83.70
28253;DHT22;15515;45.588;5.276;2022-08-19T14:41:19;28.70;82.70
28253;DHT22;15515;45.588;5.276;2022-08-19T14:43:48;28.60;81.70
28253;DHT22;15515;45.588;5.276;2022-08-19T14:46:18;28.20;82.80
28253;DHT22;15515;45.588;5.276;2022-08-19T14:48:49;28.00;85.20
28253;DHT22;15515;45.588;5.276;2022-08-19T14:51:17;27.40;87.30
28253;DHT22;15515;45.588;5.276;2022-08-19T14:53:45;27.00;90.00
28253;DHT22;15515;45.588;5.276;2022-08-19T14:56:21;26.70;90.70
28253;DHT22;15515;45.588;5.276;2022-08-19T14:58:49;26.40;90.80
28253;DHT22;15515;45.588;5.276;2022-08-19T15:01:19;26.10;90.60
28253;DHT22;15515;45.588;5.276;2022-08-19T15:03:48;25.90;90.90
28253;DHT22;15515;45.588;5.276;2022-08-19T15:06:15;25.80;91.20
28253;DHT22;15515;45.588;5.276;2022-08-19T15:08:43;25.70;90.70
28253;DHT22;15515;45.588;5.276;2022-08-19T15:11:18;25.60;90.60
28253;DHT22;15515;45.588;5.276;2022-08-19T15:13:47;25.50;90.80
28253;DHT22;15515;45.588;5.276;2022-08-19T15:16:15;25.50;90.80
28253;DHT22;15515;45.588;5.276;2022-08-19T15:18:43;25.50;90.20
28253;DHT22;15515;45.588;5.276;2022-08-19T15:21:14;25.40;90.90
28253;DHT22;15515;45.588;5.276;2022-08-19T15:23:45;25.40;90.90
28253;DHT22;15515;45.588;5.276;2022-08-19T15:26:14;25.30;90.10
28253;DHT22;15515;45.588;5.276;2022-08-19T15:28:42;25.20;90.50
28253;DHT22;15515;45.588;5.276;2022-08-19T15:31:10;25.00;90.80
28253;DHT22;15515;45.588;5.276;2022-08-19T15:33:39;25.00;90.80
28253;DHT22;15515;45.588;5.276;2022-08-19T15:36:11;25.00;91.00
28253;DHT22;15515;45.588;5.276;2022-08-19T15:38:39;24.90;91.00
28253;DHT22;15515;45.588;5.276;2022-08-19T15:41:20;24.90;91.10
28253;DHT22;15515;45.588;5.276;2022-08-19T15:43:53;25.00;90.60
28253;DHT22;15515;45.588;5.276;2022-08-19T15:46:23;25.00;90.60
28253;DHT22;15515;45.588;5.276;2022-08-19T15:48:52;25.00;90.60
28253;DHT22;15515;45.588;5.276;2022-08-19T15:51:20;25.00;90.90
28253;DHT22;15515;45.588;5.276;2022-08-19T15:53:48;25.00;90.80
28253;DHT22;15515;45.588;5.276;2022-08-19T15:56:16;25.00;90.60
28253;DHT22;15515;45.588;5.276;2022-08-19T15:58:43;25.00;91.20
28253;DHT22;15515;45.588;5.276;2022-08-19T16:01:29;25.00;91.20
28253;DHT22;15515;45.588;5.276;2022-08-19T16:04:14;25.00;91.60
28253;DHT22;15515;45.588;5.276;2022-08-19T16:07:01;25.00;92.30
28253;DHT22;15515;45.588;5.276;2022-08-19T16:09:30;24.90;91.80
28253;DHT22;15515;45.588;5.276;2022-08-19T16:12:00;24.80;92.70
28253;DHT22;15515;45.588;5.276;2022-08-19T16:14:30;24.80;92.80
28253;DHT22;15515;45.588;5.276;2022-08-19T16:16:57;24.80;92.60
28253;DHT22;15515;45.588;5.276;2022-08-19T16:19:24;24.70;92.90
28253;DHT22;15515;45.588;5.276;2022-08-19T16:21:55;24.70;93.30
28253;DHT22;15515;45.588;5.276;2022-08-19T16:24:25;24.70;93.90
28253;DHT22;15515;45.588;5.276;2022-08-19T16:26:53;24.60;93.70
28253;DHT22;15515;45.588;5.276;2022-08-19T16:29:21;24.60;94.00
28253;DHT22;15515;45.588;5.276;2022-08-19T16:31:48;24.50;93.60
28253;DHT22;15515;45.588;5.276;2022-08-19T16:34:15;24.50;93.70
28253;DHT22;15515;45.588;5.276;2022-08-19T16:36:42;24.50;93.80
28253;DHT22;15515;45.588;5.276;2022-08-19T16:39:11;24.60;94.00
28253;DHT22;15515;45.588;5.276;2022-08-19T16:41:40;24.60;93.80
28253;DHT22;15515;45.588;5.276;2022-08-19T16:44:10;24.60;94.10
28253;DHT22;15515;45.588;5.276;2022-08-19T16:46:38;24.60;94.00
28253;DHT22;15515;45.588;5.276;2022-08-19T16:49:08;24.60;94.30
28253;DHT22;15515;45.588;5.276;2022-08-19T16:51:37;24.60;94.10
28253;DHT22;15515;45.588;5.276;2022-08-19T16:54:04;24.60;93.80
28253;DHT22;15515;45.588;5.276;2022-08-19T16:56:31;24.60;94.20
28253;DHT22;15515;45.588;5.276;2022-08-19T16:58:59;24.60;94.60
28253;DHT22;15515;45.588;5.276;2022-08-19T17:01:27;24.60;94.40
28253;DHT22;15515;45.588;5.276;2022-08-19T17:03:55;24.60;94.60
28253;DHT22;15515;45.588;5.276;2022-08-19T17:06:28;24.60;94.20
28253;DHT22;15515;45.588;5.276;2022-08-19T17:08:59;24.60;93.80
28253;DHT22;15515;45.588;5.276;2022-08-19T17:11:28;24.50;94.40
28253;DHT22;15515;45.588;5.276;2022-08-19T17:13:56;24.50;94.60
28253;DHT22;15515;45.588;5.276;2022-08-19T17:16:27;24.50;94.80
28253;DHT22;15515;45.588;5.276;2022-08-19T17:18:57;24.50;95.40
28253;DHT22;15515;45.588;5.276;2022-08-19T17:21:28;24.50;95.30
28253;DHT22;15515;45.588;5.276;2022-08-19T17:23:58;24.40;95.40
28253;DHT22;15515;45.588;5.276;2022-08-19T17:26:26;24.40;95.40
28253;DHT22;15515;45.588;5.276;2022-08-19T17:28:54;24.40;95.30
28253;DHT22;15515;45.588;5.276;2022-08-19T17:31:24;24.30;95.40
28253;DHT22;15515;45.588;5.276;2022-08-19T17:33:52;24.30;95.70
28253;DHT22;15515;45.588;5.276;2022-08-19T17:36:21;24.20;96.20
28253;DHT22;15515;45.588;5.276;2022-08-19T17:38:52;24.20;96.70
28253;DHT22;15515;45.588;5.276;2022-08-19T17:41:22;24.10;97.00
28253;DHT22;15515;45.588;5.276;2022-08-19T17:43:50;24.10;97.00
28253;DHT22;15515;45.588;5.276;2022-08-19T17:46:17;24.10;97.20
28253;DHT22;15515;45.588;5.276;2022-08-19T17:48:47;24.10;97.30
28253;DHT22;15515;45.588;5.276;2022-08-19T17:53:53;24.00;97.90
28253;DHT22;15515;45.588;5.276;2022-08-19T17:56:21;23.90;98.10
28253;DHT22;15515;45.588;5.276;2022-08-19T17:58:53;23.90;97.90
28253;DHT22;15515;45.588;5.276;2022-08-19T18:01:20;23.90;98.30
28253;DHT22;15515;45.588;5.276;2022-08-19T18:03:47;23.80;98.50
28253;DHT22;15515;45.588;5.276;2022-08-19T18:06:15;23.80;98.90
28253;DHT22;15515;45.588;5.276;2022-08-19T18:08:43;23.80;99.10
28253;DHT22;15515;45.588;5.276;2022-08-19T18:11:15;23.70;99.20
28253;DHT22;15515;45.588;5.276;2022-08-19T18:13:42;23.70;99.20
28253;DHT22;15515;45.588;5.276;2022-08-19T18:16:09;23.60;99.70
28253;DHT22;15515;45.588;5.276;2022-08-19T18:18:40;23.60;99.60
28253;DHT22;15515;45.588;5.276;2022-08-19T18:21:09;23.60;99.90
28253;DHT22;15515;45.588;5.276;2022-08-19T18:23:36;23.60;99.90
28253;DHT22;15515;45.588;5.276;2022-08-19T18:26:04;23.50;99.90
28253;DHT22;15515;45.588;5.276;2022-08-19T18:28:31;23.50;99.90
28253;DHT22;15515;45.588;5.276;2022-08-19T18:30:59;23.50;99.90
28253;DHT22;15515;45.588;5.276;2022-08-19T18:33:27;23.40;99.90
28253;DHT22;15515;45.588;5.276;2022-08-19T18:35:54;23.40;99.90
28253;DHT22;15515;45.588;5.276;2022-08-19T18:38:21;23.40;99.90
28253;DHT22;15515;45.588;5.276;2022-08-19T18:41:08;23.40;99.90
28253;DHT22;15515;45.588;5.276;2022-08-19T18:43:53;23.30;99.90
28253;DHT22;15515;45.588;5.276;2022-08-19T18:46:38;23.30;99.90
28253;DHT22;15515;45.588;5.276;2022-08-19T18:49:28;23.20;99.90
28253;DHT22;15515;45.588;5.276;2022-08-19T18:51:55;23.20;99.90
28253;DHT22;15515;45.588;5.276;2022-08-19T18:54:24;23.20;99.90
28253;DHT22;15515;45.588;5.276;2022-08-19T18:56:53;23.20;99.90
28253;DHT22;15515;45.588;5.276;2022-08-19T18:59:26;23.20;99.90
28253;DHT22;15515;45.588;5.276;2022-08-19T19:01:55;23.10;99.90
28253;DHT22;15515;45.588;5.276;2022-08-19T19:04:31;23.10;99.90
28253;DHT22;15515;45.588;5.276;2022-08-19T19:07:04;23.00;99.90
28253;DHT22;15515;45.588;5.276;2022-08-19T19:09:31;22.90;99.90
28253;DHT22;15515;45.588;5.276;2022-08-19T19:12:02;22.90;99.90
28253;DHT22;15515;45.588;5.276;2022-08-19T19:14:33;22.90;99.90
28253;DHT22;15515;45.588;5.276;2022-08-19T19:17:16;22.90;99.90
28253;DHT22;15515;45.588;5.276;2022-08-19T19:19:43;22.80;99.90
28253;DHT22;15515;45.588;5.276;2022-08-19T19:22:13;22.80;99.90
28253;DHT22;15515;45.588;5.276;2022-08-19T19:24:41;22.80;99.90
28253;DHT22;15515;45.588;5.276;2022-08-19T19:27:11;22.80;99.90
28253;DHT22;15515;45.588;5.276;2022-08-19T19:29:40;22.80;99.90
28253;DHT22;15515;45.588;5.276;2022-08-19T19:32:16;22.80;99.90
28253;DHT22;15515;45.588;5.276;2022-08-19T19:34:43;22.70;99.90
28253;DHT22;15515;45.588;5.276;2022-08-19T19:37:10;22.70;99.90
28253;DHT22;15515;45.588;5.276;2022-08-19T19:39:37;22.70;99.90
28253;DHT22;15515;45.588;5.276;2022-08-19T19:42:09;22.70;99.90
28253;DHT22;15515;45.588;5.276;2022-08-19T19:44:41;22.70;99.90
28253;DHT22;15515;45.588;5.276;2022-08-19T19:47:08;22.60;99.90
28253;DHT22;15515;45.588;5.276;2022-08-19T19:49:35;22.60;99.90
28253;DHT22;15515;45.588;5.276;2022-08-19T19:52:10;22.60;99.90
28253;DHT22;15515;45.588;5.276;2022-08-19T19:54:37;22.50;99.90
28253;DHT22;15515;45.588;5.276;2022-08-19T19:57:04;22.50;99.90
28253;DHT22;15515;45.588;5.276;2022-08-19T19:59:31;22.40;99.90
28253;DHT22;15515;45.588;5.276;2022-08-19T20:01:59;22.30;99.90
28253;DHT22;15515;45.588;5.276;2022-08-19T20:04:27;22.30;99.90
28253;DHT22;15515;45.588;5.276;2022-08-19T20:06:54;22.20;99.90
28253;DHT22;15515;45.588;5.276;2022-08-19T20:09:21;22.20;99.90
28253;DHT22;15515;45.588;5.276;2022-08-19T20:11:54;22.20;99.90
28253;DHT22;15515;45.588;5.276;2022-08-19T20:14:27;22.20;99.90
28253;DHT22;15515;45.588;5.276;2022-08-19T20:16:55;22.20;99.90
28253;DHT22;15515;45.588;5.276;2022-08-19T20:19:26;22.20;99.90
28253;DHT22;15515;45.588;5.276;2022-08-19T20:21:54;22.20;99.90
28253;DHT22;15515;45.588;5.276;2022-08-19T20:24:24;22.20;99.90
28253;DHT22;15515;45.588;5.276;2022-08-19T20:26:52;22.20;99.90
28253;DHT22;15515;45.588;5.276;2022-08-19T20:29:20;22.20;99.90
28253;DHT22;15515;45.588;5.276;2022-08-19T20:31:47;22.30;99.90
28253;DHT22;15515;45.588;5.276;2022-08-19T20:34:15;22.20;99.90
28253;DHT22;15515;45.588;5.276;2022-08-19T20:36:43;22.30;99.90
28253;DHT22;15515;45.588;5.276;2022-08-19T20:39:11;22.30;99.90
28253;DHT22;15515;45.588;5.276;2022-08-19T20:41:38;22.20;99.90
28253;DHT22;15515;45.588;5.276;2022-08-19T20:44:06;22.30;99.90
28253;DHT22;15515;45.588;5.276;2022-08-19T20:46:33;22.30;99.90
28253;DHT22;15515;45.588;5.276;2022-08-19T20:49:01;22.20;99.90
28253;DHT22;15515;45.588;5.276;2022-08-19T20:51:29;22.20;99.90
28253;DHT22;15515;45.588;5.276;2022-08-19T20:53:56;22.20;99.90
28253;DHT22;15515;45.588;5.276;2022-08-19T20:56:28;22.20;99.90
